Time;durP1;ratioP1;P1;durP2;ratioP2;P2;SDS_P1;SDS_P2;PMS_P1;PMS_P2;Temp;Humidity;BMP_temperature;BMP_pressure;BME280_temperature;BME280_humidity;BME280_pressure;Samples;Min_cycle;Max_cycle;Signal;HPM_P1;HPM_P2
2023/04/17 00:00:13;;;;;;;27.38;16.38;;;;;;;-145.50;100.00;65435.88;6132883;23;20026;-72
2023/04/17 00:02:40;;;;;;;26.58;15.60;;;;;;;-145.50;100.00;65435.88;6150369;23;20029;-73
2023/04/17 00:05:07;;;;;;;25.38;15.40;;;;;;;-145.50;100.00;65435.88;6140243;23;20439;-73
2023/04/17 00:07:37;;;;;;;25.02;15.20;;;;;;;-145.50;100.00;65435.88;6151196;23;20021;-73
2023/04/17 00:10:09;;;;;;;32.97;17.52;;;;;;;-145.50;100.00;65435.88;6145973;23;20033;-73
2023/04/17 00:12:36;;;;;;;24.23;15.93;;;;;;;-145.50;100.00;65435.88;6114622;23;20028;-74
2023/04/17 00:15:03;;;;;;;24.83;16.48;;;;;;;-145.50;100.00;65435.88;6149421;23;20408;-73
2023/04/17 00:17:30;;;;;;;28.38;15.88;;;;;;;-145.50;100.00;65435.88;6115660;23;20108;-73
2023/04/17 00:19:56;;;;;;;26.17;16.10;;;;;;;-145.50;100.00;65435.88;6125436;23;20525;-74
2023/04/17 00:22:23;;;;;;;26.55;15.85;;;;;;;-145.50;100.00;65435.88;6140892;23;20484;-72
2023/04/17 00:24:49;;;;;;;29.77;16.65;;;;;;;-145.50;100.00;65435.88;6145102;23;20029;-73
2023/04/17 00:27:16;;;;;;;29.35;17.13;;;;;;;-145.50;100.00;65435.88;6144603;23;20022;-73
2023/04/17 00:29:42;;;;;;;27.00;16.60;;;;;;;-145.50;100.00;65435.88;6142396;23;20033;-74
2023/04/17 00:32:09;;;;;;;28.17;17.40;;;;;;;-145.50;100.00;65435.88;6150527;23;20032;-73
2023/04/17 00:34:36;;;;;;;26.77;15.32;;;;;;;-145.50;100.00;65435.88;6141668;23;20061;-73
2023/04/17 00:37:03;;;;;;;33.38;17.85;;;;;;;-145.50;100.00;65435.88;6150883;23;20075;-73
2023/04/17 00:39:30;;;;;;;26.17;15.82;;;;;;;-145.50;100.00;65435.88;6137684;23;20064;-74
2023/04/17 00:41:57;;;;;;;31.40;18.13;;;;;;;-145.50;100.00;65435.88;6142479;23;20080;-72
2023/04/17 00:44:24;;;;;;;27.73;17.10;;;;;;;-145.50;100.00;65435.88;6151109;23;20408;-74
2023/04/17 00:46:50;;;;;;;29.98;17.08;;;;;;;-145.50;100.00;65435.88;6143997;23;20033;-72
2023/04/17 00:49:17;;;;;;;30.33;17.30;;;;;;;-145.50;100.00;65435.88;6150814;23;20029;-73
2023/04/17 00:51:43;;;;;;;29.00;17.13;;;;;;;-145.50;100.00;65435.88;6143185;23;20025;-73
2023/04/17 00:54:11;;;;;;;28.42;17.00;;;;;;;-145.50;100.00;65435.88;6151125;23;20033;-73
2023/04/17 00:56:38;;;;;;;31.45;18.50;;;;;;;-145.50;100.00;65435.88;6144929;23;20437;-73
2023/04/17 00:59:07;;;;;;;26.02;16.45;;;;;;;-145.50;100.00;65435.88;6153016;23;20882;-73
2023/04/17 01:01:33;;;;;;;29.20;17.88;;;;;;;-145.50;100.00;65435.88;6153538;23;20029;-71
2023/04/17 01:04:00;;;;;;;28.92;16.88;;;;;;;-145.50;100.00;65435.88;6114767;23;20025;-71
2023/04/17 01:06:27;;;;;;;30.25;17.38;;;;;;;-145.50;100.00;65435.88;6129278;23;20017;-72
2023/04/17 01:08:54;;;;;;;29.10;17.27;;;;;;;-145.50;100.00;65435.88;6164137;23;20033;-71
2023/04/17 01:11:20;;;;;;;26.75;17.35;;;;;;;-145.50;100.00;65435.88;6170335;23;20026;-74
2023/04/17 01:13:48;;;;;;;28.30;17.20;;;;;;;-145.50;100.00;65435.88;6147333;23;20064;-74
2023/04/17 01:16:16;;;;;;;32.50;19.00;;;;;;;-145.50;100.00;65435.88;6121281;23;20423;-73
2023/04/17 01:18:43;;;;;;;30.77;18.10;;;;;;;-145.50;100.00;65435.88;6147952;23;20040;-71
2023/04/17 01:21:10;;;;;;;29.00;18.05;;;;;;;-145.50;100.00;65435.88;6143348;23;20025;-72
2023/04/17 01:23:50;;;;;;;29.60;17.33;;;;;;;-145.50;100.00;65435.88;6126494;23;20377;-73
2023/04/17 01:26:19;;;;;;;31.20;18.95;;;;;;;-145.50;100.00;65435.88;6143305;23;20018;-73
2023/04/17 01:28:50;;;;;;;31.25;18.50;;;;;;;-145.50;100.00;65435.88;6150482;23;20352;-72
2023/04/17 01:31:17;;;;;;;28.65;17.40;;;;;;;-145.50;100.00;65435.88;6136974;23;20337;-74
2023/04/17 01:33:43;;;;;;;30.42;18.10;;;;;;;-145.50;100.00;65435.88;6144579;23;20368;-73
2023/04/17 01:36:10;;;;;;;32.60;18.15;;;;;;;-145.50;100.00;65435.88;6146437;23;20356;-72
2023/04/17 01:38:36;;;;;;;31.27;17.83;;;;;;;-145.50;100.00;65435.88;6146448;23;20029;-73
2023/04/17 01:41:08;;;;;;;32.47;18.67;;;;;;;-145.50;100.00;65435.88;6150594;23;20061;-72
2023/04/17 01:43:40;;;;;;;29.75;17.30;;;;;;;-145.50;100.00;65435.88;6116195;23;20141;-73
2023/04/17 01:46:06;;;;;;;33.67;18.02;;;;;;;-145.50;100.00;65435.88;6141596;23;20412;-74
2023/04/17 01:48:33;;;;;;;28.73;18.10;;;;;;;-145.50;100.00;65435.88;6140408;23;20048;-72
2023/04/17 01:51:00;;;;;;;32.40;18.35;;;;;;;-145.50;100.00;65435.88;6150559;23;20432;-74
2023/04/17 01:53:30;;;;;;;29.30;17.23;;;;;;;-145.50;100.00;65435.88;6142423;23;20302;-73
2023/04/17 01:55:57;;;;;;;31.10;18.35;;;;;;;-145.50;100.00;65435.88;6150220;23;20032;-74
2023/04/17 01:58:24;;;;;;;31.70;19.50;;;;;;;-145.50;100.00;65435.88;6148332;23;20028;-74
2023/04/17 02:00:50;;;;;;;29.77;18.05;;;;;;;-145.50;100.00;65435.88;6141210;23;20385;-73
2023/04/17 02:03:17;;;;;;;30.75;18.60;;;;;;;-145.50;100.00;65435.88;6149462;23;20032;-73
2023/04/17 02:05:46;;;;;;;30.92;19.98;;;;;;;-145.50;100.00;65435.88;6141027;23;20025;-73
2023/04/17 02:08:13;;;;;;;32.92;18.70;;;;;;;-145.50;100.00;65435.88;6148016;23;20022;-72
2023/04/17 02:10:41;;;;;;;29.42;18.70;;;;;;;-145.50;100.00;65435.88;6134600;23;20029;-73
2023/04/17 02:13:08;;;;;;;30.20;18.17;;;;;;;-145.50;100.00;65435.88;6146981;23;20057;-73
2023/04/17 02:15:38;;;;;;;33.22;19.10;;;;;;;-145.50;100.00;65435.88;6149945;23;20048;-73
2023/04/17 02:18:05;;;;;;;34.05;19.80;;;;;;;-145.50;100.00;65435.88;6141697;23;20416;-72
2023/04/17 02:20:32;;;;;;;33.47;19.23;;;;;;;-145.50;100.00;65435.88;6148973;23;20025;-72
2023/04/17 02:23:00;;;;;;;28.42;18.30;;;;;;;-145.50;100.00;65435.88;6111930;23;20060;-73
2023/04/17 02:25:27;;;;;;;35.58;19.35;;;;;;;-145.50;100.00;65435.88;6144281;23;20056;-74
2023/04/17 02:27:55;;;;;;;30.83;19.75;;;;;;;-145.50;100.00;65435.88;6145615;23;20068;-72
2023/04/17 02:30:22;;;;;;;34.95;20.65;;;;;;;-145.50;100.00;65435.88;6120074;23;20025;-74
2023/04/17 02:32:50;;;;;;;30.10;17.40;;;;;;;-145.50;100.00;65435.88;6149493;23;20029;-73
2023/04/17 02:35:21;;;;;;;28.00;17.88;;;;;;;-145.50;100.00;65435.88;6141986;23;20026;-73
2023/04/17 02:37:48;;;;;;;31.30;19.98;;;;;;;-145.50;100.00;65435.88;6141811;23;20036;-73
2023/04/17 02:40:15;;;;;;;33.00;20.00;;;;;;;-145.50;100.00;65435.88;6139941;23;20037;-74
2023/04/17 02:42:41;;;;;;;30.27;18.95;;;;;;;-145.50;100.00;65435.88;6123323;23;20080;-73
2023/04/17 02:45:09;;;;;;;30.00;19.10;;;;;;;-145.50;100.00;65435.88;6142765;23;20083;-71
2023/04/17 02:47:36;;;;;;;29.17;18.13;;;;;;;-145.50;100.00;65435.88;6147735;23;20061;-74
2023/04/17 02:50:04;;;;;;;32.58;19.70;;;;;;;-145.50;100.00;65435.88;6143797;23;20049;-68
2023/04/17 02:52:31;;;;;;;30.85;17.23;;;;;;;-145.50;100.00;65435.88;6134148;23;20474;-70
2023/04/17 02:54:58;;;;;;;29.02;18.70;;;;;;;-145.50;100.00;65435.88;6148797;23;20579;-67
2023/04/17 02:57:24;;;;;;;29.38;18.75;;;;;;;-145.50;100.00;65435.88;6141984;23;20084;-73
2023/04/17 02:59:51;;;;;;;30.00;18.52;;;;;;;-145.50;100.00;65435.88;6149055;23;20025;-74
2023/04/17 03:02:20;;;;;;;29.67;18.80;;;;;;;-145.50;100.00;65435.88;6149106;23;20088;-73
2023/04/17 03:04:48;;;;;;;29.00;17.10;;;;;;;-145.50;100.00;65435.88;6135597;23;20025;-73
2023/04/17 03:07:17;;;;;;;30.27;18.65;;;;;;;-145.50;100.00;65435.88;6144236;23;20361;-73
2023/04/17 03:09:46;;;;;;;24.13;15.90;;;;;;;-145.50;100.00;65435.88;6115100;23;20104;-73
2023/04/17 03:12:13;;;;;;;31.25;18.80;;;;;;;-145.50;100.00;65435.88;6149573;23;20104;-73
2023/04/17 03:14:41;;;;;;;31.17;18.02;;;;;;;-145.50;100.00;65435.88;6141296;23;20060;-74
2023/04/17 03:17:08;;;;;;;25.70;16.55;;;;;;;-145.50;100.00;65435.88;6149309;23;20021;-73
2023/04/17 03:19:35;;;;;;;28.35;18.25;;;;;;;-145.50;100.00;65435.88;6115280;23;20033;-71
2023/04/17 03:22:02;;;;;;;28.23;16.27;;;;;;;-145.50;100.00;65435.88;6137385;23;20057;-73
2023/04/17 03:24:30;;;;;;;29.10;17.77;;;;;;;-145.50;100.00;65435.88;6149656;23;20403;-73
2023/04/17 03:26:57;;;;;;;26.58;17.15;;;;;;;-145.50;100.00;65435.88;6114448;23;20376;-73
2023/04/17 03:29:24;;;;;;;27.35;17.45;;;;;;;-145.50;100.00;65435.88;6148283;23;20029;-73
2023/04/17 03:31:51;;;;;;;28.80;16.85;;;;;;;-145.50;100.00;65435.88;6135473;23;20053;-73
2023/04/17 03:34:20;;;;;;;24.83;15.82;;;;;;;-145.50;100.00;65435.88;6146033;23;20630;-74
2023/04/17 03:36:46;;;;;;;;;;;;;;;-145.50;100.00;65435.88;6149584;23;20140;-75
2023/04/17 03:39:13;;;;;;;26.08;16.52;;;;;;;-145.50;100.00;65435.88;6139516;23;19920;-73
2023/04/17 03:41:40;;;;;;;29.73;16.90;;;;;;;-145.50;100.00;65435.88;6149159;23;20044;-73
2023/04/17 03:44:07;;;;;;;29.48;17.05;;;;;;;-145.50;100.00;65435.88;6136326;23;20085;-71
2023/04/17 03:46:34;;;;;;;26.90;17.15;;;;;;;-145.50;100.00;65435.88;6142437;23;20025;-73
2023/04/17 03:49:01;;;;;;;30.58;17.38;;;;;;;-145.50;100.00;65435.88;6140446;23;20032;-71
2023/04/17 03:51:27;;;;;;;26.15;16.55;;;;;;;-145.50;100.00;65435.88;6122516;23;20105;-73
2023/04/17 03:53:54;;;;;;;30.05;18.33;;;;;;;-145.50;100.00;65435.88;6150185;23;20025;-73
2023/04/17 03:56:20;;;;;;;29.50;17.25;;;;;;;-145.50;100.00;65435.88;6139392;23;20472;-73
2023/04/17 03:58:47;;;;;;;27.98;16.80;;;;;;;-145.50;100.00;65435.88;6144067;23;20317;-73
2023/04/17 04:01:14;;;;;;;26.58;17.08;;;;;;;-145.50;100.00;65435.88;6133753;23;20492;-73
2023/04/17 04:03:41;;;;;;;27.42;18.05;;;;;;;-145.50;100.00;65435.88;6148150;23;20025;-73
2023/04/17 04:06:08;;;;;;;27.02;16.80;;;;;;;-145.50;100.00;65435.88;6139664;23;20312;-73
2023/04/17 04:08:35;;;;;;;26.75;16.90;;;;;;;-145.50;100.00;65435.88;6148018;23;20025;-73
2023/04/17 04:11:02;;;;;;;30.38;17.23;;;;;;;-145.50;100.00;65435.88;6148714;23;20547;-73
2023/04/17 04:13:28;;;;;;;28.27;17.55;;;;;;;-145.50;100.00;65435.88;6134649;23;20052;-73
2023/04/17 04:15:55;;;;;;;26.42;16.17;;;;;;;-145.50;100.00;65435.88;6143926;23;20029;-73
2023/04/17 04:18:21;;;;;;;28.25;16.75;;;;;;;-145.50;100.00;65435.88;6139759;23;20025;-74
2023/04/17 04:20:48;;;;;;;30.23;17.75;;;;;;;-145.50;100.00;65435.88;6148846;23;20018;-74
2023/04/17 04:23:15;;;;;;;31.00;18.33;;;;;;;-145.50;100.00;65435.88;6140859;23;20517;-72
2023/04/17 04:25:42;;;;;;;33.15;18.95;;;;;;;-145.50;100.00;65435.88;6148883;23;20468;-73
2023/04/17 04:28:09;;;;;;;32.78;18.80;;;;;;;-145.50;100.00;65435.88;6114405;23;20025;-71
2023/04/17 04:30:37;;;;;;;30.50;18.20;;;;;;;-145.50;100.00;65435.88;6136864;23;20029;-74
2023/04/17 04:33:04;;;;;;;29.42;17.98;;;;;;;-145.50;100.00;65435.88;6123168;23;20029;-73
2023/04/17 04:35:31;;;;;;;30.45;18.42;;;;;;;-145.50;100.00;65435.88;6140292;23;20108;-73
2023/04/17 04:38:01;;;;;;;29.02;18.27;;;;;;;-145.50;100.00;65435.88;6149456;23;20515;-73
2023/04/17 04:40:29;;;;;;;33.03;18.42;;;;;;;-145.50;100.00;65435.88;6135314;23;20573;-74
2023/04/17 04:42:56;;;;;;;33.15;19.48;;;;;;;-145.50;100.00;65435.88;6145898;23;20108;-72
2023/04/17 04:45:22;;;;;;;28.90;18.45;;;;;;;-145.50;100.00;65435.88;6148860;23;20025;-73
2023/04/17 04:47:49;;;;;;;30.67;18.38;;;;;;;-145.50;100.00;65435.88;6140019;23;20057;-73
2023/04/17 04:50:16;;;;;;;30.42;17.60;;;;;;;-145.50;100.00;65435.88;6150927;23;20064;-73
2023/04/17 04:52:43;;;;;;;32.83;19.50;;;;;;;-145.50;100.00;65435.88;6142951;23;20485;-73
2023/04/17 04:55:09;;;;;;;36.55;20.48;;;;;;;-145.50;100.00;65435.88;6145945;23;20036;-73
2023/04/17 04:57:36;;;;;;;31.30;18.23;;;;;;;-145.50;100.00;65435.88;6136774;23;20026;-73
2023/04/17 05:00:05;;;;;;;33.60;18.02;;;;;;;-145.50;100.00;65435.88;6150844;23;20069;-72
2023/04/17 05:02:31;;;;;;;32.70;19.42;;;;;;;-145.50;100.00;65435.88;6149564;23;20029;-74
2023/04/17 05:04:58;;;;;;;30.88;18.92;;;;;;;-145.50;100.00;65435.88;6141353;23;20408;-74
2023/04/17 05:07:26;;;;;;;35.00;19.83;;;;;;;-145.50;100.00;65435.88;6149083;23;20028;-74
2023/04/17 05:09:52;;;;;;;33.58;19.80;;;;;;;-145.50;100.00;65435.88;6132392;23;20036;-71
2023/04/17 05:12:19;;;;;;;33.42;19.02;;;;;;;-145.50;100.00;65435.88;6148939;23;20718;-73
2023/04/17 05:14:46;;;;;;;33.72;19.52;;;;;;;-145.50;100.00;65435.88;6142690;23;20056;-72
2023/04/17 05:17:13;;;;;;;35.75;19.98;;;;;;;-145.50;100.00;65435.88;6124027;23;20088;-74
2023/04/17 05:19:39;;;;;;;32.63;18.95;;;;;;;-145.50;100.00;65435.88;6150595;23;20026;-74
2023/04/17 05:22:06;;;;;;;35.33;19.27;;;;;;;-145.50;100.00;65435.88;6110221;23;20060;-73
2023/04/17 05:24:32;;;;;;;35.03;19.67;;;;;;;-145.50;100.00;65435.88;6143905;23;20021;-71
2023/04/17 05:27:00;;;;;;;35.60;20.17;;;;;;;-145.50;100.00;65435.88;6139823;23;20423;-73
2023/04/17 05:29:27;;;;;;;38.13;20.45;;;;;;;-145.50;100.00;65435.88;6150979;23;20029;-73
2023/04/17 05:31:53;;;;;;;32.30;19.40;;;;;;;-145.50;100.00;65435.88;6142894;23;20080;-73
2023/04/17 05:34:20;;;;;;;31.95;19.48;;;;;;;-145.50;100.00;65435.88;6150279;23;20022;-73
2023/04/17 05:36:47;;;;;;;27.60;17.45;;;;;;;-145.50;100.00;65435.88;6119491;23;20032;-74
2023/04/17 05:39:13;;;;;;;35.53;21.60;;;;;;;-145.50;100.00;65435.88;6136177;23;20026;-73
2023/04/17 05:41:40;;;;;;;37.03;20.70;;;;;;;-145.50;100.00;65435.88;6124553;23;20029;-75
2023/04/17 05:44:07;;;;;;;37.78;21.80;;;;;;;-145.50;100.00;65435.88;6142642;23;20487;-74
2023/04/17 05:46:33;;;;;;;35.10;21.05;;;;;;;-145.50;100.00;65435.88;6150632;23;20452;-73
2023/04/17 05:49:00;;;;;;;30.55;18.65;;;;;;;-145.50;100.00;65435.88;6142779;23;20021;-74
2023/04/17 05:51:27;;;;;;;33.15;19.67;;;;;;;-145.50;100.00;65435.88;6143940;23;20064;-72
2023/04/17 05:53:54;;;;;;;36.03;20.55;;;;;;;-145.50;100.00;65435.88;6146195;23;20356;-73
2023/04/17 05:56:20;;;;;;;34.38;20.02;;;;;;;-145.50;100.00;65435.88;6141939;23;20108;-73
2023/04/17 05:58:47;;;;;;;36.90;20.45;;;;;;;-145.50;100.00;65435.88;6150261;23;20029;-73
2023/04/17 06:01:16;;;;;;;35.58;21.65;;;;;;;-145.50;100.00;65435.88;6115636;23;20073;-74
2023/04/17 06:03:43;;;;;;;33.75;20.05;;;;;;;-145.50;100.00;65435.88;6092721;23;20021;-72
2023/04/17 06:06:10;;;;;;;33.45;20.40;;;;;;;-145.50;100.00;65435.88;6111887;23;20025;-73
2023/04/17 06:08:36;;;;;;;33.22;20.05;;;;;;;-145.50;100.00;65435.88;6117088;23;20487;-74
2023/04/17 06:11:03;;;;;;;35.60;20.67;;;;;;;-145.50;100.00;65435.88;6121568;23;20025;-73
2023/04/17 06:13:29;;;;;;;36.53;21.35;;;;;;;-145.50;100.00;65435.88;6113661;23;20064;-74
2023/04/17 06:15:56;;;;;;;33.13;20.52;;;;;;;-145.50;100.00;65435.88;6121798;23;20502;-73
2023/04/17 06:18:22;;;;;;;35.15;20.60;;;;;;;-145.50;100.00;65435.88;6109244;23;20018;-74
2023/04/17 06:20:49;;;;;;;32.42;20.15;;;;;;;-145.50;100.00;65435.88;6116522;23;20108;-74
2023/04/17 06:23:16;;;;;;;30.15;18.65;;;;;;;-145.50;100.00;65435.88;6120955;23;20113;-74
2023/04/17 06:25:42;;;;;;;33.08;18.55;;;;;;;-145.50;100.00;65435.88;6114852;23;20054;-74
2023/04/17 06:28:09;;;;;;;35.38;20.73;;;;;;;-145.50;100.00;65435.88;6121273;23;20026;-73
2023/04/17 06:30:35;;;;;;;34.75;20.95;;;;;;;-145.50;100.00;65435.88;6114350;23;20052;-74
2023/04/17 06:33:02;;;;;;;34.25;21.02;;;;;;;-145.50;100.00;65435.88;6116680;23;20026;-74
2023/04/17 06:35:29;;;;;;;33.45;20.35;;;;;;;-145.50;100.00;65435.88;6108683;23;20608;-73
2023/04/17 06:37:56;;;;;;;29.45;17.95;;;;;;;-145.50;100.00;65435.88;6120338;23;20351;-73
2023/04/17 06:40:22;;;;;;;30.65;19.50;;;;;;;-145.50;100.00;65435.88;6121339;23;20033;-74
2023/04/17 06:42:48;;;;;;;32.63;19.20;;;;;;;-145.50;100.00;65435.88;6114241;23;20026;-74
2023/04/17 06:45:15;;;;;;;31.75;20.00;;;;;;;-145.50;100.00;65435.88;6120819;23;20053;-73
2023/04/17 06:47:44;;;;;;;35.03;20.73;;;;;;;-145.50;100.00;65435.88;6107794;23;20026;-72
2023/04/17 06:50:11;;;;;;;32.53;19.85;;;;;;;-145.50;100.00;65435.88;6116776;23;20030;-73
2023/04/17 06:52:37;;;;;;;34.40;19.85;;;;;;;-145.50;100.00;65435.88;6088734;23;20053;-74
2023/04/17 06:55:04;;;;;;;35.78;20.02;;;;;;;-145.50;100.00;65435.88;6094433;23;20030;-72
2023/04/17 06:57:32;;;;;;;35.17;19.17;;;;;;;-145.50;100.00;65435.88;6120448;23;20525;-72
2023/04/17 06:59:59;;;;;;;37.45;22.05;;;;;;;-145.50;100.00;65435.88;6109219;23;20108;-74
2023/04/17 07:02:26;;;;;;;34.67;20.67;;;;;;;-145.50;100.00;65435.88;6126668;23;20026;-74
2023/04/17 07:04:53;;;;;;;30.08;18.40;;;;;;;-145.50;100.00;65435.88;6115178;23;20132;-74
2023/04/17 07:07:23;;;;;;;37.38;21.58;;;;;;;-145.50;100.00;65435.88;6152783;23;20049;-72
2023/04/17 07:09:50;;;;;;;34.78;19.80;;;;;;;-145.50;100.00;65435.88;6153032;23;20024;-73
2023/04/17 07:12:17;;;;;;;33.22;19.80;;;;;;;-145.50;100.00;65435.88;6145623;23;20036;-72
2023/04/17 07:14:43;;;;;;;35.08;20.92;;;;;;;-145.50;100.00;65435.88;6124377;23;20023;-74
2023/04/17 07:17:10;;;;;;;34.63;21.10;;;;;;;-145.50;100.00;65435.88;6113784;23;20397;-75
2023/04/17 07:19:37;;;;;;;39.78;22.35;;;;;;;-145.50;100.00;65435.88;6152876;23;20407;-73
2023/04/17 07:22:04;;;;;;;38.55;22.92;;;;;;;-145.50;100.00;65435.88;6144653;23;20025;-73
2023/04/17 07:24:33;;;;;;;35.95;21.58;;;;;;;-145.50;100.00;65435.88;6153956;23;20109;-73
2023/04/17 07:27:06;;;;;;;33.60;20.20;;;;;;;-145.50;100.00;65435.88;6155041;23;20035;-72
2023/04/17 07:29:33;;;;;;;39.63;21.50;;;;;;;-145.50;100.00;65435.88;6150457;23;20021;-72
2023/04/17 07:32:01;;;;;;;36.05;21.17;;;;;;;-145.50;100.00;65435.88;6152212;23;20326;-72
2023/04/17 07:34:30;;;;;;;37.88;22.95;;;;;;;-145.50;100.00;65435.88;6144005;23;20558;-74
2023/04/17 07:36:56;;;;;;;33.17;20.08;;;;;;;-145.50;100.00;65435.88;6125155;23;20022;-74
2023/04/17 07:39:25;;;;;;;37.90;22.33;;;;;;;-145.50;100.00;65435.88;6137163;23;20021;-72
2023/04/17 07:41:52;;;;;;;40.33;23.27;;;;;;;-145.50;100.00;65435.88;6120724;23;20033;-73
2023/04/17 07:44:18;;;;;;;38.53;22.55;;;;;;;-145.50;100.00;65435.88;6150387;23;20026;-74
2023/04/17 07:46:45;;;;;;;39.75;21.98;;;;;;;-145.50;100.00;65435.88;6118231;23;20507;-73
2023/04/17 07:49:11;;;;;;;41.50;23.88;;;;;;;-145.50;100.00;65435.88;6150371;23;20076;-73
2023/04/17 07:51:39;;;;;;;45.45;24.40;;;;;;;-145.50;100.00;65435.88;6139848;23;20337;-73
2023/04/17 07:54:06;;;;;;;41.53;23.03;;;;;;;-145.50;100.00;65435.88;6117184;23;20021;-72
2023/04/17 07:56:33;;;;;;;34.85;21.00;;;;;;;-145.50;100.00;65435.88;6142872;23;20044;-73
2023/04/17 07:59:01;;;;;;;45.70;24.00;;;;;;;-145.50;100.00;65435.88;6151052;23;20022;-74
2023/04/17 08:01:27;;;;;;;40.30;23.95;;;;;;;-145.50;100.00;65435.88;6117523;23;20100;-74
2023/04/17 08:03:54;;;;;;;39.35;22.90;;;;;;;-145.50;100.00;65435.88;6123494;23;20029;-73
2023/04/17 08:06:21;;;;;;;37.40;22.63;;;;;;;-145.50;100.00;65435.88;6144744;23;20705;-74
2023/04/17 08:08:47;;;;;;;35.80;23.33;;;;;;;-145.50;100.00;65435.88;6137110;23;20052;-74
2023/04/17 08:11:14;;;;;;;33.35;21.27;;;;;;;-145.50;100.00;65435.88;6150104;23;20030;-73
2023/04/17 08:13:41;;;;;;;37.45;24.13;;;;;;;-145.50;100.00;65435.88;6117266;23;20076;-73
2023/04/17 08:16:08;;;;;;;35.17;21.98;;;;;;;-145.50;100.00;65435.88;6150877;23;20021;-73
2023/04/17 08:18:36;;;;;;;35.00;23.17;;;;;;;-145.50;100.00;65435.88;6150780;23;20024;-73
2023/04/17 08:21:03;;;;;;;39.83;23.63;;;;;;;-145.50;100.00;65435.88;6138694;23;20622;-74
2023/04/17 08:23:30;;;;;;;37.15;23.00;;;;;;;-145.50;100.00;65435.88;6148063;23;20033;-74
2023/04/17 08:25:57;;;;;;;37.90;23.00;;;;;;;-145.50;100.00;65435.88;6145380;23;20783;-74
2023/04/17 08:28:23;;;;;;;38.00;22.10;;;;;;;-145.50;100.00;65435.88;6152826;23;20025;-73
2023/04/17 08:30:50;;;;;;;35.47;21.90;;;;;;;-145.50;100.00;65435.88;6145397;23;20022;-74
2023/04/17 08:33:17;;;;;;;34.85;22.70;;;;;;;-145.50;100.00;65435.88;6150904;23;20026;-73
2023/04/17 08:35:44;;;;;;;35.22;21.83;;;;;;;-145.50;100.00;65435.88;6144929;23;20111;-74
2023/04/17 08:38:12;;;;;;;36.53;22.95;;;;;;;-145.50;100.00;65435.88;6144707;23;20606;-74
2023/04/17 08:40:41;;;;;;;33.58;20.10;;;;;;;-145.50;100.00;65435.88;6151038;23;20025;-74
2023/04/17 08:43:17;;;;;;;31.48;20.25;;;;;;;-145.50;100.00;65435.88;6144558;23;20026;-74
2023/04/17 08:45:52;;;;;;;38.33;23.25;;;;;;;-145.50;100.00;65435.88;6151379;23;20025;-74
2023/04/17 08:48:21;;;;;;;35.40;23.25;;;;;;;-145.50;100.00;65435.88;6139038;23;20409;-74
2023/04/17 08:50:50;;;;;;;39.92;23.45;;;;;;;-145.50;100.00;65435.88;6146711;23;20108;-74
2023/04/17 08:53:18;;;;;;;38.63;23.80;;;;;;;-145.50;100.00;65435.88;6151552;23;20025;-74
2023/04/17 08:55:45;;;;;;;36.40;24.07;;;;;;;-145.50;100.00;65435.88;6145632;23;20112;-73
2023/04/17 08:58:13;;;;;;;33.83;23.20;;;;;;;-145.50;100.00;65435.88;6152092;23;20108;-74
2023/04/17 09:00:42;;;;;;;33.87;22.77;;;;;;;-145.50;100.00;65435.88;6144390;23;20030;-74
2023/04/17 09:03:10;;;;;;;39.20;23.63;;;;;;;-145.50;100.00;65435.88;6145265;23;20100;-72
2023/04/17 09:05:40;;;;;;;31.40;20.15;;;;;;;-145.50;100.00;65435.88;6140903;23;20029;-73
2023/04/17 09:08:07;;;;;;;40.92;23.98;;;;;;;-145.50;100.00;65435.88;6152905;23;20447;-73
2023/04/17 09:10:36;;;;;;;35.10;22.35;;;;;;;-145.50;100.00;65435.88;6153478;23;20029;-73
2023/04/17 09:13:03;;;;;;;34.92;23.85;;;;;;;-145.50;100.00;65435.88;6144415;23;20029;-73
2023/04/17 09:15:31;;;;;;;36.63;23.25;;;;;;;-145.50;100.00;65435.88;6153889;23;20036;-74
2023/04/17 09:17:58;;;;;;;33.72;23.02;;;;;;;-145.50;100.00;65435.88;6121285;23;20056;-74
2023/04/17 09:20:25;;;;;;;32.63;21.13;;;;;;;-145.50;100.00;65435.88;6154614;23;20033;-72
2023/04/17 09:23:02;;;;;;;34.55;22.15;;;;;;;-145.50;100.00;65435.88;6122018;23;20029;-74
2023/04/17 09:25:29;;;;;;;34.35;22.35;;;;;;;-145.50;100.00;65435.88;6160783;23;20020;-71
2023/04/17 09:28:08;;;;;;;32.47;20.90;;;;;;;-145.50;100.00;65435.88;6168166;23;20049;-71
2023/04/17 09:30:36;;;;;;;32.72;22.88;;;;;;;-145.50;100.00;65435.88;6154304;23;20056;-74
2023/04/17 09:33:04;;;;;;;34.88;22.65;;;;;;;-145.50;100.00;65435.88;6154823;23;20022;-74
2023/04/17 09:35:30;;;;;;;32.38;21.48;;;;;;;-145.50;100.00;65435.88;6120679;23;20708;-74
2023/04/17 09:37:58;;;;;;;33.30;21.70;;;;;;;-145.50;100.00;65435.88;6154375;23;20041;-74
2023/04/17 09:40:26;;;;;;;32.55;21.88;;;;;;;-145.50;100.00;65435.88;6140053;23;20109;-73
2023/04/17 09:43:00;;;;;;;;;;;;;;;-145.50;100.00;65435.88;6147850;23;20025;-73
2023/04/17 09:45:34;;;;;;;27.92;19.00;;;;;;;-145.50;100.00;65435.88;6151089;23;19979;-75
2023/04/17 09:48:06;;;;;;;30.83;21.25;;;;;;;-145.50;100.00;65435.88;6145254;23;20076;-73
2023/04/17 09:50:34;;;;;;;28.95;20.10;;;;;;;-145.50;100.00;65435.88;6152141;23;20029;-74
2023/04/17 09:53:03;;;;;;;31.30;20.70;;;;;;;-145.50;100.00;65435.88;6142710;23;20031;-72
2023/04/17 09:55:31;;;;;;;30.90;19.90;;;;;;;-145.50;100.00;65435.88;6146415;23;20026;-74
2023/04/17 09:58:01;;;;;;;31.95;21.00;;;;;;;-145.50;100.00;65435.88;6139605;23;20258;-74
2023/04/17 10:00:28;;;;;;;32.95;21.98;;;;;;;-145.50;100.00;65435.88;6154829;23;20021;-74
2023/04/17 10:02:57;;;;;;;33.33;21.45;;;;;;;-145.50;100.00;65435.88;6147016;23;20029;-74
2023/04/17 10:05:27;;;;;;;25.27;18.50;;;;;;;-145.50;100.00;65435.88;6154649;23;20029;-74
2023/04/17 10:07:55;;;;;;;27.45;18.65;;;;;;;-145.50;100.00;65435.88;6155521;23;20457;-73
2023/04/17 10:10:24;;;;;;;23.33;17.38;;;;;;;-145.50;100.00;65435.88;6145365;23;20219;-75
2023/04/17 10:12:57;;;;;;;28.85;19.33;;;;;;;-145.50;100.00;65435.88;6159691;23;20045;-74
2023/04/17 10:15:25;;;;;;;27.23;19.77;;;;;;;-145.50;100.00;65435.88;6152551;23;20787;-76
2023/04/17 10:17:55;;;;;;;27.10;19.05;;;;;;;-145.50;100.00;65435.88;6161165;23;20026;-76
2023/04/17 10:20:22;;;;;;;29.30;20.40;;;;;;;-145.50;100.00;65435.88;6157896;23;20685;-71
2023/04/17 10:22:55;;;;;;;26.98;19.70;;;;;;;-145.50;100.00;65435.88;6158224;23;20029;-74
2023/04/17 10:25:28;;;;;;;30.83;18.90;;;;;;;-145.50;100.00;65435.88;6165312;23;20021;-71
2023/04/17 10:27:59;;;;;;;25.67;19.20;;;;;;;-145.50;100.00;65435.88;6167569;23;20031;-71
2023/04/17 10:30:52;;;;;;;29.90;19.85;;;;;;;-145.50;100.00;65435.88;6172163;23;20028;-71
2023/04/17 10:33:26;;;;;;;30.83;20.90;;;;;;;-145.50;100.00;65435.88;6148230;23;20048;-72
2023/04/17 10:35:53;;;;;;;29.23;19.38;;;;;;;-145.50;100.00;65435.88;6152938;23;20029;-71
2023/04/17 10:38:31;;;;;;;34.28;21.02;;;;;;;-145.50;100.00;65435.88;6140082;23;20025;-74
2023/04/17 10:41:01;;;;;;;26.30;16.90;;;;;;;-145.50;100.00;65435.88;6152628;23;20061;-74
2023/04/17 10:43:28;;;;;;;25.77;17.17;;;;;;;-145.50;100.00;65435.88;6146657;23;20037;-73
2023/04/17 10:45:57;;;;;;;25.27;17.60;;;;;;;-145.50;100.00;65435.88;6152643;23;20037;-72
2023/04/17 10:48:32;;;;;;;23.92;15.68;;;;;;;-145.50;100.00;65435.88;6152537;23;20025;-73
2023/04/17 10:51:00;;;;;;;23.60;15.80;;;;;;;-145.50;100.00;65435.88;6141883;23;20104;-73
2023/04/17 10:53:43;;;;;;;21.63;16.35;;;;;;;-145.50;100.00;65435.88;6152094;23;20029;-74
2023/04/17 10:56:16;;;;;;;23.23;16.02;;;;;;;-145.50;100.00;65435.88;6145079;23;20228;-74